createdAt,value
2023-05-22T00:01:19.848Z,16.25
2023-05-22T00:04:22.368Z,12.70
2023-05-22T00:07:24.559Z,13.70
2023-05-22T00:10:27.056Z,11.50
2023-05-22T00:13:29.441Z,11.35
2023-05-22T00:16:31.958Z,11.73
2023-05-22T00:19:35.365Z,12.07
2023-05-22T00:22:38.028Z,11.05
2023-05-22T00:25:40.858Z,10.88
2023-05-22T00:28:43.696Z,12.68
2023-05-22T00:31:46.450Z,13.30
2023-05-22T00:34:50.594Z,8.50
2023-05-22T00:37:52.923Z,3.95
2023-05-22T00:40:56.598Z,9.45
2023-05-22T00:43:58.849Z,11.48
2023-05-22T00:47:03.630Z,12.80
2023-05-22T00:50:08.783Z,11.90
2023-05-22T00:53:11.979Z,7.82
2023-05-22T00:56:16.042Z,13.27
2023-05-22T00:59:19.156Z,12.18
2023-05-22T01:02:21.198Z,10.05
2023-05-22T01:05:25.986Z,3.03
2023-05-22T01:08:28.941Z,7.15
2023-05-22T01:11:44.924Z,3.35
2023-05-22T01:15:04.400Z,3.78
2023-05-22T01:18:25.865Z,5.90
2023-05-22T01:21:33.145Z,8.85
2023-05-22T01:24:47.434Z,10.93
2023-05-22T01:28:05.740Z,3.97
2023-05-22T01:31:14.053Z,6.90
2023-05-22T01:34:20.711Z,11.23
2023-05-22T01:37:24.632Z,14.43
2023-05-22T01:40:29.726Z,15.25
2023-05-22T01:43:32.804Z,15.45
2023-05-22T01:46:36.625Z,15.70
2023-05-22T01:49:40.046Z,17.20
2023-05-22T01:53:07.786Z,18.00
2023-05-22T01:56:16.614Z,15.82
2023-05-22T01:59:45.705Z,17.23
2023-05-22T02:02:56.798Z,16.75
2023-05-22T02:06:01.741Z,18.48
2023-05-22T02:09:06.475Z,18.98
2023-05-22T02:12:10.087Z,18.50
2023-05-22T02:15:15.030Z,14.10
2023-05-22T02:21:22.663Z,9.63
2023-05-22T02:24:25.024Z,7.30
2023-05-22T02:27:28.460Z,5.37
2023-05-22T02:30:31.425Z,5.47
2023-05-22T02:33:34.135Z,9.23
2023-05-22T02:36:37.690Z,11.68
2023-05-22T02:39:41.368Z,9.63
2023-05-22T02:42:43.554Z,12.98
2023-05-22T02:45:46.749Z,11.43
2023-05-22T02:48:49.680Z,10.93
2023-05-22T02:51:55.438Z,4.00
2023-05-22T02:54:58.209Z,9.68
2023-05-22T02:58:00.750Z,7.47
2023-05-22T03:01:04.028Z,9.90
2023-05-22T03:04:09.488Z,6.07
2023-05-22T03:07:13.231Z,7.47
2023-05-22T03:10:15.705Z,12.60
2023-05-22T03:13:18.135Z,3.75
2023-05-22T03:16:20.697Z,3.25
2023-05-22T03:19:24.351Z,3.50
2023-05-22T03:22:27.250Z,11.68
2023-05-22T03:25:29.438Z,12.55
2023-05-22T03:28:31.994Z,15.85
2023-05-22T03:31:35.458Z,17.60
2023-05-22T03:34:43.853Z,16.65
2023-05-22T03:37:47.646Z,16.17
2023-05-22T03:40:50.779Z,18.95
2023-05-22T03:43:52.848Z,19.00
2023-05-22T03:46:58.653Z,18.60
2023-05-22T03:50:00.868Z,20.20
2023-05-22T03:53:04.103Z,19.88
2023-05-22T03:56:06.962Z,17.98
2023-05-22T03:59:09.910Z,18.33
2023-05-22T04:02:13.572Z,18.08
2023-05-22T04:05:17.136Z,17.98
2023-05-22T04:08:20.378Z,18.00
2023-05-22T04:11:22.898Z,6.35
2023-05-22T04:14:25.215Z,12.48
2023-05-22T04:17:34.418Z,12.57
2023-05-22T04:20:38.756Z,4.55
2023-05-22T04:23:43.906Z,6.43
2023-05-22T04:26:46.230Z,6.22
2023-05-22T04:29:50.664Z,3.50
2023-05-22T04:32:52.786Z,3.63
2023-05-22T04:35:55.176Z,3.08
2023-05-22T04:38:57.385Z,4.50
2023-05-22T04:42:06.026Z,3.05
2023-05-22T04:45:10.246Z,6.35
2023-05-22T04:48:16.047Z,2.88
2023-05-22T04:51:18.461Z,9.07
2023-05-22T04:54:21.283Z,10.57
2023-05-22T04:57:25.950Z,3.20
2023-05-22T05:00:29.358Z,2.95
2023-05-22T05:03:32.898Z,2.97
2023-05-22T05:06:36.349Z,2.80
2023-05-22T05:09:38.450Z,3.13
2023-05-22T05:12:42.636Z,10.60
2023-05-22T05:15:45.244Z,10.55
2023-05-22T05:18:47.876Z,5.03
2023-05-22T05:21:51.462Z,8.80
2023-05-22T05:24:54.849Z,10.57
2023-05-22T05:27:58.658Z,12.15
2023-05-22T05:31:02.698Z,6.82
2023-05-22T05:34:25.008Z,4.32
2023-05-22T05:37:39.538Z,8.65
2023-05-22T05:40:42.619Z,14.65
2023-05-22T05:43:48.265Z,16.55
2023-05-22T05:46:50.843Z,12.93
2023-05-22T05:53:02.416Z,18.67
2023-05-22T05:56:06.884Z,18.13
2023-05-22T05:59:10.947Z,11.95
2023-05-22T06:02:13.956Z,12.73
2023-05-22T06:05:19.614Z,15.85
2023-05-22T06:08:26.363Z,16.17
2023-05-22T06:11:29.962Z,15.65
2023-05-22T06:14:34.294Z,18.40
2023-05-22T06:17:38.297Z,20.17
2023-05-22T06:23:46.418Z,19.88
2023-05-22T06:26:49.567Z,13.45
2023-05-22T06:29:51.989Z,19.15
2023-05-22T06:32:55.878Z,15.32
2023-05-22T06:35:59.479Z,16.67
2023-05-22T06:39:03.214Z,17.90
2023-05-22T06:42:42.031Z,17.52
2023-05-22T06:46:05.776Z,14.10
2023-05-22T06:49:41.557Z,14.45
2023-05-22T06:52:44.667Z,16.48
2023-05-22T06:55:48.889Z,15.00
2023-05-22T06:58:59.811Z,12.02
2023-05-22T07:02:38.113Z,16.90
2023-05-22T07:06:00.963Z,16.23
2023-05-22T07:09:04.995Z,18.00
2023-05-22T07:12:09.028Z,19.42
2023-05-22T07:15:13.914Z,14.77
2023-05-22T07:18:21.759Z,14.00
2023-05-22T07:21:24.255Z,13.57
2023-05-22T07:24:29.070Z,13.77
2023-05-22T07:27:32.176Z,12.98
2023-05-22T07:30:38.988Z,12.02
2023-05-22T07:33:42.211Z,11.80
2023-05-22T07:36:45.314Z,12.10
2023-05-22T07:42:57.227Z,8.27
2023-05-22T07:46:00.109Z,8.55
2023-05-22T07:49:07.497Z,7.85
2023-05-22T07:52:12.172Z,7.77
2023-05-22T07:55:16.447Z,7.53
2023-05-22T07:58:20.231Z,7.28
2023-05-22T08:01:25.431Z,7.22
2023-05-22T08:04:30.486Z,6.97
2023-05-22T08:07:33.441Z,6.63
2023-05-22T08:10:51.958Z,7.25
2023-05-22T08:13:58.702Z,6.25
2023-05-22T08:17:02.899Z,6.35
2023-05-22T08:20:07.534Z,6.28
2023-05-22T08:23:10.640Z,7.63
2023-05-22T08:26:13.268Z,7.40
2023-05-22T08:29:17.250Z,7.53
2023-05-22T08:32:20.231Z,7.60
2023-05-22T08:35:23.563Z,6.72
2023-05-22T08:38:28.489Z,7.32
2023-05-22T08:41:31.221Z,7.40
2023-05-22T08:44:33.941Z,7.88
2023-05-22T08:47:38.884Z,7.90
2023-05-22T08:50:44.046Z,6.82
2023-05-22T08:53:52.239Z,8.00
2023-05-22T08:56:57.071Z,7.18
2023-05-22T09:00:00.366Z,7.50
2023-05-22T09:03:04.231Z,8.25
2023-05-22T09:06:09.923Z,8.35
2023-05-22T09:12:15.912Z,7.90
2023-05-22T09:15:20.814Z,6.93
2023-05-22T09:18:28.740Z,9.55
2023-05-22T09:21:31.575Z,9.60
2023-05-22T09:24:46.709Z,9.90
2023-05-22T09:27:49.674Z,9.15
2023-05-22T09:30:55.056Z,9.18
2023-05-22T09:33:58.566Z,9.48
2023-05-22T09:37:04.334Z,9.45
2023-05-22T09:40:12.342Z,7.53
2023-05-22T09:43:18.412Z,8.57
2023-05-22T09:46:21.155Z,7.90
2023-05-22T09:49:23.956Z,8.65
2023-05-22T09:52:35.351Z,8.93
2023-05-22T09:55:39.185Z,7.47
2023-05-22T09:58:43.914Z,8.15
2023-05-22T10:01:51.292Z,7.22
2023-05-22T10:04:54.968Z,7.78
2023-05-22T10:08:05.390Z,8.13
2023-05-22T10:11:08.765Z,6.72
2023-05-22T10:14:13.349Z,6.53
2023-05-22T10:17:17.707Z,7.03
2023-05-22T10:20:21.547Z,6.47
2023-05-22T10:23:25.786Z,5.00
2023-05-22T10:26:30.689Z,5.15
2023-05-22T10:29:55.273Z,7.38
2023-05-22T10:33:25.324Z,5.05
2023-05-22T10:36:56.072Z,8.05
2023-05-22T10:40:11.091Z,7.88
2023-05-22T10:43:13.548Z,8.50
2023-05-22T10:46:17.207Z,7.10
2023-05-22T10:49:23.947Z,7.70
2023-05-22T10:52:27.349Z,7.72
2023-05-22T10:55:30.072Z,7.45
2023-05-22T10:58:37.625Z,7.55
2023-05-22T11:01:40.398Z,6.40
2023-05-22T11:04:51.755Z,7.75
2023-05-22T11:08:32.334Z,8.00
2023-05-22T11:11:35.082Z,7.60
2023-05-22T11:14:38.323Z,8.48
2023-05-22T11:17:45.203Z,7.73
2023-05-22T11:20:47.987Z,7.25
2023-05-22T11:23:51.079Z,7.53
2023-05-22T11:27:20.536Z,7.43
2023-05-22T11:30:31.171Z,7.38
2023-05-22T11:33:33.841Z,7.65
2023-05-22T11:36:37.934Z,7.32
2023-05-22T11:39:40.458Z,7.10
2023-05-22T11:42:43.453Z,7.20
2023-05-22T11:45:46.477Z,6.88
2023-05-22T11:48:53.421Z,7.22
2023-05-22T11:51:56.496Z,7.97
2023-05-22T11:55:00.532Z,8.07
2023-05-22T11:58:03.067Z,7.20
2023-05-22T12:01:06.516Z,7.53
2023-05-22T12:04:09.200Z,7.10
2023-05-22T12:07:12.517Z,5.50
2023-05-22T12:10:16.591Z,5.78
2023-05-22T12:13:29.993Z,5.90
2023-05-22T12:16:37.181Z,5.90
2023-05-22T12:19:41.611Z,6.45
2023-05-22T12:22:44.685Z,7.13
2023-05-22T12:26:01.506Z,6.70
2023-05-22T12:29:07.183Z,7.28
2023-05-22T12:32:12.581Z,7.47
2023-05-22T12:35:17.321Z,6.43
2023-05-22T12:38:24.845Z,6.55
2023-05-22T12:41:27.448Z,7.00
2023-05-22T12:44:30.506Z,6.90
2023-05-22T12:47:33.392Z,6.40
2023-05-22T12:50:36.738Z,5.97
2023-05-22T12:53:43.198Z,5.93
2023-05-22T12:56:48.070Z,5.40
2023-05-22T12:59:50.701Z,5.38
2023-05-22T13:02:54.111Z,4.90
2023-05-22T13:05:56.684Z,5.65
2023-05-22T13:09:02.662Z,5.40
2023-05-22T13:12:05.802Z,5.07
2023-05-22T13:15:09.469Z,5.30
2023-05-22T13:18:21.168Z,5.43
2023-05-22T13:24:40.844Z,5.68
2023-05-22T13:27:43.843Z,5.18
2023-05-22T13:30:46.688Z,7.13
2023-05-22T13:33:50.271Z,7.57
2023-05-22T13:36:52.978Z,7.50
2023-05-22T13:39:57.402Z,9.50
2023-05-22T13:43:00.066Z,6.93
2023-05-22T13:46:04.343Z,7.25
2023-05-22T13:49:08.445Z,8.52
2023-05-22T13:52:12.284Z,7.50
2023-05-22T13:55:18.481Z,8.27
2023-05-22T13:58:21.826Z,9.75
2023-05-22T14:01:25.407Z,9.45
2023-05-22T14:04:30.318Z,8.25
2023-05-22T14:10:36.902Z,8.98
2023-05-22T14:13:39.407Z,7.95
2023-05-22T14:16:42.652Z,6.40
2023-05-22T14:19:45.533Z,5.85
2023-05-22T14:25:59.030Z,6.35
2023-05-22T14:29:02.265Z,6.57
2023-05-22T14:32:06.482Z,6.88
2023-05-22T14:35:10.321Z,6.18
2023-05-22T14:38:22.253Z,6.90
2023-05-22T14:41:25.887Z,5.45
2023-05-22T14:44:28.426Z,5.70
2023-05-22T14:47:31.787Z,6.05
2023-05-22T14:50:34.456Z,6.32
2023-05-22T14:53:37.788Z,6.40
2023-05-22T14:56:41.365Z,6.05
2023-05-22T15:02:48.196Z,6.75
2023-05-22T15:05:52.827Z,5.93
2023-05-22T15:08:56.898Z,6.43
2023-05-22T15:12:00.182Z,7.00
2023-05-22T15:15:02.827Z,6.57
2023-05-22T15:18:06.276Z,6.22
2023-05-22T15:21:10.102Z,6.45
2023-05-22T15:24:14.094Z,6.03
2023-05-22T15:27:19.421Z,5.68
2023-05-22T15:30:24.073Z,6.57
2023-05-22T15:33:26.485Z,5.67
2023-05-22T15:36:35.506Z,4.57
2023-05-22T15:39:38.566Z,4.20
2023-05-22T15:42:44.956Z,4.40
2023-05-22T15:45:49.479Z,4.28
2023-05-22T15:49:00.810Z,4.20
2023-05-22T15:52:03.984Z,4.63
2023-05-22T15:55:08.437Z,4.32
2023-05-22T15:58:12.625Z,3.70
2023-05-22T16:01:16.197Z,4.38
2023-05-22T16:04:21.397Z,5.07
2023-05-22T16:07:25.532Z,3.85
2023-05-22T16:10:27.828Z,3.95
2023-05-22T16:13:31.313Z,4.40
2023-05-22T16:16:34.033Z,4.38
2023-05-22T16:19:37.585Z,4.20
2023-05-22T16:25:54.954Z,4.28
2023-05-22T16:28:58.404Z,4.80
2023-05-22T16:32:02.442Z,4.15
2023-05-22T16:35:05.431Z,4.00
2023-05-22T16:38:12.187Z,4.70
2023-05-22T16:41:15.291Z,4.30
2023-05-22T16:44:20.129Z,4.75
2023-05-22T16:47:24.226Z,4.13
2023-05-22T16:50:27.888Z,4.68
2023-05-22T16:53:30.470Z,4.03
2023-05-22T16:56:34.771Z,4.47
2023-05-22T16:59:39.139Z,4.97
2023-05-22T17:02:43.413Z,5.53
2023-05-22T17:05:50.946Z,6.20
2023-05-22T17:08:54.211Z,7.03
2023-05-22T17:11:57.029Z,6.13
2023-05-22T17:15:00.437Z,6.85
2023-05-22T17:18:03.514Z,6.70
2023-05-22T17:21:09.401Z,7.25
2023-05-22T17:24:15.567Z,8.25
2023-05-22T17:27:31.895Z,8.00
2023-05-22T17:30:38.023Z,8.07
2023-05-22T17:33:43.803Z,7.88
2023-05-22T17:36:46.381Z,8.40
2023-05-22T17:39:50.208Z,8.93
2023-05-22T17:42:53.749Z,10.23
2023-05-22T17:48:59.515Z,9.77
2023-05-22T17:52:05.310Z,9.63
2023-05-22T17:55:08.895Z,9.90
2023-05-22T17:58:11.884Z,10.43
2023-05-22T18:01:14.813Z,10.82
2023-05-22T18:04:19.254Z,9.95
2023-05-22T18:07:21.805Z,9.52
2023-05-22T18:10:25.767Z,11.23
2023-05-22T18:13:29.023Z,11.43
2023-05-22T18:16:32.531Z,11.45
2023-05-22T18:19:35.485Z,11.88
2023-05-22T18:22:40.636Z,11.35
2023-05-22T18:25:43.112Z,11.32
2023-05-22T18:28:48.596Z,10.43
2023-05-22T18:31:52.043Z,10.63
2023-05-22T18:34:55.243Z,11.80
2023-05-22T18:38:00.730Z,10.05
2023-05-22T18:41:03.970Z,10.93
2023-05-22T18:48:10.089Z,10.82
2023-05-22T18:51:13.815Z,10.85
2023-05-22T18:55:07.472Z,11.07
2023-05-22T18:58:14.603Z,10.73
2023-05-22T19:06:07.392Z,9.55
2023-05-22T19:09:37.969Z,9.70
2023-05-22T19:12:41.109Z,9.70
2023-05-22T19:15:45.908Z,9.85
2023-05-22T19:18:49.217Z,10.02
2023-05-22T19:21:51.810Z,10.82
2023-05-22T19:25:34.050Z,13.13
2023-05-22T19:29:00.228Z,16.08
2023-05-22T19:32:02.667Z,15.60
2023-05-22T19:35:07.903Z,15.68
2023-05-22T19:38:10.685Z,16.40
2023-05-22T19:41:17.459Z,15.93
2023-05-22T19:44:20.958Z,16.17
2023-05-22T19:47:24.066Z,16.02
2023-05-22T19:50:26.858Z,16.10
2023-05-22T19:53:33.352Z,16.80
2023-05-22T19:56:36.488Z,17.75
2023-05-22T19:59:43.615Z,15.93
2023-05-22T20:02:47.486Z,13.65
2023-05-22T20:05:54.294Z,11.68
2023-05-22T20:08:57.320Z,12.27
2023-05-22T20:12:00.788Z,10.25
2023-05-22T20:15:05.474Z,10.27
2023-05-22T20:18:11.354Z,9.75
2023-05-22T20:21:15.275Z,8.82
2023-05-22T20:24:25.604Z,9.13
2023-05-22T20:27:28.436Z,8.73
2023-05-22T20:30:36.008Z,8.25
2023-05-22T20:33:38.789Z,8.75
2023-05-22T20:36:42.933Z,9.23
2023-05-22T20:39:46.637Z,8.55
2023-05-22T20:42:53.907Z,8.57
2023-05-22T20:45:57.606Z,7.43
2023-05-22T20:49:01.016Z,8.75
2023-05-22T20:52:04.864Z,8.68
2023-05-22T20:55:09.105Z,7.97
2023-05-22T20:58:12.018Z,7.80
2023-05-22T21:01:16.332Z,7.53
2023-05-22T21:04:18.848Z,6.63
2023-05-22T21:07:22.394Z,8.50
2023-05-22T21:10:24.924Z,8.65
2023-05-22T21:13:27.935Z,8.65
2023-05-22T21:16:30.515Z,8.10
2023-05-22T21:19:39.716Z,9.23
2023-05-22T21:22:44.643Z,9.25
2023-05-22T21:28:50.613Z,9.75
2023-05-22T21:31:53.907Z,10.80
2023-05-22T21:34:58.149Z,11.45
2023-05-22T21:38:02.878Z,10.40
2023-05-22T21:41:06.078Z,10.38
2023-05-22T21:44:10.695Z,11.27
2023-05-22T21:47:13.457Z,11.60
2023-05-22T21:50:17.498Z,10.70
2023-05-22T21:53:23.538Z,10.75
2023-05-22T21:56:28.016Z,10.15
2023-05-22T21:59:32.928Z,10.73
2023-05-22T22:02:36.470Z,11.05
2023-05-22T22:05:39.116Z,10.32
2023-05-22T22:08:45.021Z,11.25
2023-05-22T22:11:49.393Z,12.00
2023-05-22T22:14:53.678Z,13.27
2023-05-22T22:18:02.531Z,13.73
2023-05-22T22:21:06.473Z,15.75
2023-05-22T22:24:08.879Z,17.70
2023-05-22T22:27:16.560Z,17.50
2023-05-22T22:30:20.218Z,16.58
2023-05-22T22:33:23.392Z,17.77
2023-05-22T22:36:26.402Z,16.88
2023-05-22T22:39:29.078Z,16.23
2023-05-22T22:42:36.140Z,16.45
2023-05-22T22:45:40.955Z,16.58
2023-05-22T22:51:47.457Z,16.08
2023-05-22T22:54:49.670Z,16.13
2023-05-22T22:57:52.763Z,16.33
2023-05-22T23:00:55.459Z,17.48
2023-05-22T23:03:58.168Z,18.45
2023-05-22T23:07:05.119Z,16.48
2023-05-22T23:10:09.004Z,18.52
2023-05-22T23:13:11.830Z,16.30
2023-05-22T23:16:15.077Z,16.50
2023-05-22T23:19:17.670Z,18.45
2023-05-22T23:22:20.674Z,15.57
2023-05-22T23:25:24.077Z,14.60
2023-05-22T23:28:27.464Z,17.37
2023-05-22T23:31:31.415Z,16.65
2023-05-22T23:34:35.403Z,16.85
2023-05-22T23:37:38.364Z,17.30
2023-05-22T23:40:44.519Z,16.77
2023-05-22T23:43:48.874Z,16.55
2023-05-22T23:46:54.181Z,20.40
2023-05-22T23:56:07.934Z,19.95
2023-05-22T23:59:11.496Z,20.00
